sensor_id;sensor_type;location;lat;lon;timestamp;pressure;altitude;pressure_sealevel;temperature;humidity
42847;BME280;28495;49.916;14.536;2022-07-17T00:01:05;97752.59;;;15.43;48.94
42847;BME280;28495;49.916;14.536;2022-07-17T00:06:26;97759.19;;;15.47;48.82
42847;BME280;28495;49.916;14.536;2022-07-17T00:11:47;97758.63;;;15.53;48.88
42847;BME280;28495;49.916;14.536;2022-07-17T00:17:07;97760.28;;;15.54;49.00
42847;BME280;28495;49.916;14.536;2022-07-17T00:22:28;97755.88;;;15.45;48.72
42847;BME280;28495;49.916;14.536;2022-07-17T00:27:49;97755.81;;;15.36;48.93
42847;BME280;28495;49.916;14.536;2022-07-17T00:33:10;97760.50;;;15.43;49.02
42847;BME280;28495;49.916;14.536;2022-07-17T00:38:30;97756.38;;;15.30;48.78
42847;BME280;28495;49.916;14.536;2022-07-17T00:43:51;97756.28;;;15.22;48.51
42847;BME280;28495;49.916;14.536;2022-07-17T00:49:12;97760.56;;;14.85;48.83
42847;BME280;28495;49.916;14.536;2022-07-17T00:54:35;97771.09;;;14.85;48.90
42847;BME280;28495;49.916;14.536;2022-07-17T00:59:57;97772.31;;;14.81;49.00
42847;BME280;28495;49.916;14.536;2022-07-17T01:05:20;97772.22;;;14.73;49.11
42847;BME280;28495;49.916;14.536;2022-07-17T01:10:41;97776.34;;;14.75;49.28
42847;BME280;28495;49.916;14.536;2022-07-17T01:16:02;97783.09;;;14.78;49.41
42847;BME280;28495;49.916;14.536;2022-07-17T01:21:24;97783.78;;;14.90;49.52
42847;BME280;28495;49.916;14.536;2022-07-17T01:26:47;97787.41;;;14.79;49.21
42847;BME280;28495;49.916;14.536;2022-07-17T01:32:08;97788.78;;;14.73;49.51
42847;BME280;28495;49.916;14.536;2022-07-17T01:37:29;97792.94;;;14.66;49.37
42847;BME280;28495;49.916;14.536;2022-07-17T01:42:51;97791.00;;;14.58;49.70
42847;BME280;28495;49.916;14.536;2022-07-17T01:48:11;97793.75;;;14.67;49.57
42847;BME280;28495;49.916;14.536;2022-07-17T01:53:32;97788.22;;;14.60;49.56
42847;BME280;28495;49.916;14.536;2022-07-17T01:58:53;97793.34;;;14.61;49.72
42847;BME280;28495;49.916;14.536;2022-07-17T02:04:14;97787.69;;;14.56;49.45
42847;BME280;28495;49.916;14.536;2022-07-17T02:09:35;97789.63;;;14.44;49.50
42847;BME280;28495;49.916;14.536;2022-07-17T02:14:55;97787.28;;;14.41;49.55
42847;BME280;28495;49.916;14.536;2022-07-17T02:20:16;97788.94;;;14.42;49.72
42847;BME280;28495;49.916;14.536;2022-07-17T02:25:37;97781.75;;;14.44;49.95
42847;BME280;28495;49.916;14.536;2022-07-17T02:30:59;97789.50;;;14.36;49.66
42847;BME280;28495;49.916;14.536;2022-07-17T02:36:20;97787.84;;;14.35;49.61
42847;BME280;28495;49.916;14.536;2022-07-17T02:41:40;97793.66;;;14.29;49.49
42847;BME280;28495;49.916;14.536;2022-07-17T02:47:01;97788.94;;;14.23;49.72
42847;BME280;28495;49.916;14.536;2022-07-17T02:52:22;97791.16;;;14.08;49.76
42847;BME280;28495;49.916;14.536;2022-07-17T02:57:44;97797.50;;;13.95;49.94
42847;BME280;28495;49.916;14.536;2022-07-17T03:03:07;97804.81;;;14.01;49.98
42847;BME280;28495;49.916;14.536;2022-07-17T03:08:27;97803.72;;;13.94;50.15
42847;BME280;28495;49.916;14.536;2022-07-17T03:13:48;97803.84;;;14.02;50.17
42847;BME280;28495;49.916;14.536;2022-07-17T03:19:09;97801.81;;;14.06;50.19
42847;BME280;28495;49.916;14.536;2022-07-17T03:24:29;97807.16;;;14.05;50.20
42847;BME280;28495;49.916;14.536;2022-07-17T03:29:52;97801.50;;;13.99;50.07
42847;BME280;28495;49.916;14.536;2022-07-17T03:35:13;97808.50;;;13.79;50.19
42847;BME280;28495;49.916;14.536;2022-07-17T03:40:34;97810.13;;;13.70;50.61
42847;BME280;28495;49.916;14.536;2022-07-17T03:45:55;97813.16;;;13.66;50.52
42847;BME280;28495;49.916;14.536;2022-07-17T03:51:16;97815.09;;;13.64;50.75
42847;BME280;28495;49.916;14.536;2022-07-17T03:56:36;97816.88;;;13.63;50.94
42847;BME280;28495;49.916;14.536;2022-07-17T04:01:57;97825.47;;;13.85;51.10
42847;BME280;28495;49.916;14.536;2022-07-17T04:07:17;97810.63;;;14.05;51.12
42847;BME280;28495;49.916;14.536;2022-07-17T04:12:48;97807.59;;;14.39;51.55
42847;BME280;28495;49.916;14.536;2022-07-17T04:18:08;97809.88;;;14.91;51.28
42847;BME280;28495;49.916;14.536;2022-07-17T04:23:29;97812.72;;;15.55;51.12
42847;BME280;28495;49.916;14.536;2022-07-17T04:28:50;97809.59;;;16.16;50.79
42847;BME280;28495;49.916;14.536;2022-07-17T04:34:11;97819.22;;;16.61;50.24
42847;BME280;28495;49.916;14.536;2022-07-17T04:39:31;97818.66;;;16.76;49.83
42847;BME280;28495;49.916;14.536;2022-07-17T04:44:52;97808.84;;;17.39;50.16
42847;BME280;28495;49.916;14.536;2022-07-17T04:50:13;97816.81;;;17.98;49.68
42847;BME280;28495;49.916;14.536;2022-07-17T04:55:33;97826.13;;;18.61;49.72
42847;BME280;28495;49.916;14.536;2022-07-17T05:00:54;97825.44;;;19.08;48.75
42847;BME280;28495;49.916;14.536;2022-07-17T05:06:15;97817.63;;;19.31;48.16
42847;BME280;28495;49.916;14.536;2022-07-17T05:11:35;97810.84;;;19.69;47.47
42847;BME280;28495;49.916;14.536;2022-07-17T05:16:56;97819.16;;;19.97;46.81
42847;BME280;28495;49.916;14.536;2022-07-17T05:22:17;97817.53;;;20.43;46.33
42847;BME280;28495;49.916;14.536;2022-07-17T05:27:38;97829.41;;;20.70;45.77
42847;BME280;28495;49.916;14.536;2022-07-17T05:32:58;97831.22;;;20.93;45.71
42847;BME280;28495;49.916;14.536;2022-07-17T05:38:19;97828.69;;;21.14;44.81
42847;BME280;28495;49.916;14.536;2022-07-17T05:43:39;97822.31;;;21.39;44.49
42847;BME280;28495;49.916;14.536;2022-07-17T05:49:00;97831.53;;;21.58;43.92
42847;BME280;28495;49.916;14.536;2022-07-17T05:54:21;97832.72;;;21.70;43.57
42847;BME280;28495;49.916;14.536;2022-07-17T05:59:41;97838.75;;;21.79;43.48
42847;BME280;28495;49.916;14.536;2022-07-17T06:05:02;97839.88;;;21.70;42.35
42847;BME280;28495;49.916;14.536;2022-07-17T06:10:24;97841.81;;;21.61;42.76
42847;BME280;28495;49.916;14.536;2022-07-17T06:15:46;97860.00;;;21.79;42.54
42847;BME280;28495;49.916;14.536;2022-07-17T06:21:07;97861.44;;;21.97;42.81
42847;BME280;28495;49.916;14.536;2022-07-17T06:26:27;97871.63;;;21.48;42.28
42847;BME280;28495;49.916;14.536;2022-07-17T06:31:48;97870.16;;;21.60;41.94
42847;BME280;28495;49.916;14.536;2022-07-17T06:37:09;97867.31;;;21.32;42.42
42847;BME280;28495;49.916;14.536;2022-07-17T06:42:30;97882.09;;;21.26;42.07
42847;BME280;28495;49.916;14.536;2022-07-17T06:47:52;97883.41;;;21.30;42.45
42847;BME280;28495;49.916;14.536;2022-07-17T06:53:13;97885.53;;;21.50;42.33
42847;BME280;28495;49.916;14.536;2022-07-17T06:58:35;97885.53;;;21.80;41.78
42847;BME280;28495;49.916;14.536;2022-07-17T07:03:56;97888.44;;;22.00;41.95
42847;BME280;28495;49.916;14.536;2022-07-17T07:09:17;97889.44;;;22.14;42.17
42847;BME280;28495;49.916;14.536;2022-07-17T07:14:38;97888.16;;;22.10;41.34
42847;BME280;28495;49.916;14.536;2022-07-17T07:19:58;97885.34;;;21.97;41.58
42847;BME280;28495;49.916;14.536;2022-07-17T07:25:19;97886.16;;;21.97;41.66
42847;BME280;28495;49.916;14.536;2022-07-17T07:30:42;97881.47;;;22.36;41.89
42847;BME280;28495;49.916;14.536;2022-07-17T07:36:03;97881.41;;;22.29;40.76
42847;BME280;28495;49.916;14.536;2022-07-17T07:41:24;97884.50;;;21.96;41.21
42847;BME280;28495;49.916;14.536;2022-07-17T07:46:45;97872.34;;;21.87;40.78
42847;BME280;28495;49.916;14.536;2022-07-17T07:52:06;97884.72;;;21.80;41.12
42847;BME280;28495;49.916;14.536;2022-07-17T07:57:27;97896.25;;;21.72;41.20
42847;BME280;28495;49.916;14.536;2022-07-17T08:02:48;97887.63;;;22.00;41.00
42847;BME280;28495;49.916;14.536;2022-07-17T08:08:09;97889.66;;;21.98;41.16
42847;BME280;28495;49.916;14.536;2022-07-17T08:13:30;97888.25;;;22.02;41.15
42847;BME280;28495;49.916;14.536;2022-07-17T08:18:51;97883.34;;;21.84;40.83
42847;BME280;28495;49.916;14.536;2022-07-17T08:24:12;97885.44;;;21.88;41.00
42847;BME280;28495;49.916;14.536;2022-07-17T08:29:32;97891.56;;;21.59;40.94
42847;BME280;28495;49.916;14.536;2022-07-17T08:35:13;97893.47;;;21.35;40.40
42847;BME280;28495;49.916;14.536;2022-07-17T08:40:36;97888.25;;;21.27;41.32
42847;BME280;28495;49.916;14.536;2022-07-17T08:45:58;97889.00;;;21.36;40.69
42847;BME280;28495;49.916;14.536;2022-07-17T08:51:19;97899.16;;;21.32;40.30
42847;BME280;28495;49.916;14.536;2022-07-17T08:56:40;97897.41;;;21.39;40.50
42847;BME280;28495;49.916;14.536;2022-07-17T09:02:03;97898.41;;;21.38;40.09
42847;BME280;28495;49.916;14.536;2022-07-17T09:07:24;97902.63;;;21.17;40.28
42847;BME280;28495;49.916;14.536;2022-07-17T09:12:45;97890.25;;;21.10;40.35
42847;BME280;28495;49.916;14.536;2022-07-17T09:18:07;97888.13;;;21.05;40.48
42847;BME280;28495;49.916;14.536;2022-07-17T09:23:28;97887.97;;;21.22;40.74
42847;BME280;28495;49.916;14.536;2022-07-17T09:28:49;97882.00;;;21.20;40.16
42847;BME280;28495;49.916;14.536;2022-07-17T09:34:17;97884.41;;;21.29;40.96
42847;BME280;28495;49.916;14.536;2022-07-17T09:39:38;97881.50;;;21.39;40.83
42847;BME280;28495;49.916;14.536;2022-07-17T09:45:06;97877.38;;;21.52;40.08
42847;BME280;28495;49.916;14.536;2022-07-17T09:50:28;97880.13;;;21.43;40.36
42847;BME280;28495;49.916;14.536;2022-07-17T09:55:51;97876.72;;;21.50;40.41
42847;BME280;28495;49.916;14.536;2022-07-17T10:01:18;97868.50;;;21.44;40.49
42847;BME280;28495;49.916;14.536;2022-07-17T10:06:39;97878.56;;;21.49;41.03
42847;BME280;28495;49.916;14.536;2022-07-17T10:12:00;97873.09;;;21.66;40.60
42847;BME280;28495;49.916;14.536;2022-07-17T10:17:21;97865.09;;;21.51;39.86
42847;BME280;28495;49.916;14.536;2022-07-17T10:22:46;97863.19;;;21.59;41.18
42847;BME280;28495;49.916;14.536;2022-07-17T10:28:07;97863.94;;;21.68;40.52
42847;BME280;28495;49.916;14.536;2022-07-17T10:33:28;97859.56;;;21.60;40.96
42847;BME280;28495;49.916;14.536;2022-07-17T10:38:48;97860.00;;;21.64;40.64
42847;BME280;28495;49.916;14.536;2022-07-17T10:44:09;97862.94;;;21.84;40.25
42847;BME280;28495;49.916;14.536;2022-07-17T10:49:30;97868.69;;;21.88;40.69
42847;BME280;28495;49.916;14.536;2022-07-17T10:54:51;97858.28;;;22.08;40.79
42847;BME280;28495;49.916;14.536;2022-07-17T11:00:12;97854.28;;;21.97;40.18
42847;BME280;28495;49.916;14.536;2022-07-17T11:05:33;97855.63;;;22.08;40.17
42847;BME280;28495;49.916;14.536;2022-07-17T11:10:54;97860.69;;;22.03;39.91
42847;BME280;28495;49.916;14.536;2022-07-17T11:16:29;97857.16;;;22.17;39.99
42847;BME280;28495;49.916;14.536;2022-07-17T11:21:52;97847.81;;;22.21;39.72
42847;BME280;28495;49.916;14.536;2022-07-17T11:27:25;97845.72;;;22.17;39.65
42847;BME280;28495;49.916;14.536;2022-07-17T11:32:46;97846.88;;;22.29;40.22
42847;BME280;28495;49.916;14.536;2022-07-17T11:38:07;97845.63;;;22.47;40.14
42847;BME280;28495;49.916;14.536;2022-07-17T11:43:28;97847.94;;;22.50;40.11
42847;BME280;28495;49.916;14.536;2022-07-17T11:48:48;97847.03;;;22.43;39.94
42847;BME280;28495;49.916;14.536;2022-07-17T11:54:11;97845.28;;;22.50;39.58
42847;BME280;28495;49.916;14.536;2022-07-17T11:59:32;97846.13;;;22.57;40.08
42847;BME280;28495;49.916;14.536;2022-07-17T12:04:58;97835.66;;;22.49;39.29
42847;BME280;28495;49.916;14.536;2022-07-17T12:10:21;97841.88;;;22.41;39.85
42847;BME280;28495;49.916;14.536;2022-07-17T12:15:47;97833.78;;;22.49;39.56
42847;BME280;28495;49.916;14.536;2022-07-17T12:21:12;97830.00;;;22.59;39.57
42847;BME280;28495;49.916;14.536;2022-07-17T12:26:33;97829.22;;;22.65;39.40
42847;BME280;28495;49.916;14.536;2022-07-17T12:32:08;97820.44;;;22.64;39.13
42847;BME280;28495;49.916;14.536;2022-07-17T12:37:31;97816.81;;;22.72;38.66
42847;BME280;28495;49.916;14.536;2022-07-17T12:42:52;97805.75;;;22.68;38.71
42847;BME280;28495;49.916;14.536;2022-07-17T12:48:13;97813.09;;;22.66;38.22
42847;BME280;28495;49.916;14.536;2022-07-17T12:53:36;97817.88;;;22.78;38.97
42847;BME280;28495;49.916;14.536;2022-07-17T12:58:56;97821.22;;;22.87;38.31
42847;BME280;28495;49.916;14.536;2022-07-17T13:04:21;97816.03;;;22.78;38.78
42847;BME280;28495;49.916;14.536;2022-07-17T13:09:42;97806.41;;;22.77;38.56
42847;BME280;28495;49.916;14.536;2022-07-17T13:15:04;97810.59;;;22.87;38.34
42847;BME280;28495;49.916;14.536;2022-07-17T13:20:25;97804.44;;;22.86;37.96
42847;BME280;28495;49.916;14.536;2022-07-17T13:25:45;97802.41;;;22.88;37.68
42847;BME280;28495;49.916;14.536;2022-07-17T13:31:07;97803.41;;;22.87;37.52
42847;BME280;28495;49.916;14.536;2022-07-17T13:36:29;97805.94;;;22.67;37.32
42847;BME280;28495;49.916;14.536;2022-07-17T13:41:50;97804.13;;;22.67;37.18
42847;BME280;28495;49.916;14.536;2022-07-17T13:47:12;97804.22;;;22.81;37.26
42847;BME280;28495;49.916;14.536;2022-07-17T13:52:33;97797.50;;;22.92;36.73
42847;BME280;28495;49.916;14.536;2022-07-17T13:57:53;97795.59;;;22.79;36.39
42847;BME280;28495;49.916;14.536;2022-07-17T14:03:14;97798.44;;;22.77;36.49
42847;BME280;28495;49.916;14.536;2022-07-17T14:08:35;97785.09;;;22.71;35.77
42847;BME280;28495;49.916;14.536;2022-07-17T14:13:56;97789.81;;;22.68;35.49
42847;BME280;28495;49.916;14.536;2022-07-17T14:19:17;97782.63;;;22.69;35.45
42847;BME280;28495;49.916;14.536;2022-07-17T14:24:37;97782.00;;;22.67;35.19
42847;BME280;28495;49.916;14.536;2022-07-17T14:29:58;97775.72;;;22.75;35.57
42847;BME280;28495;49.916;14.536;2022-07-17T14:35:19;97776.91;;;23.01;35.65
42847;BME280;28495;49.916;14.536;2022-07-17T14:40:40;97776.38;;;23.12;35.57
42847;BME280;28495;49.916;14.536;2022-07-17T14:46:01;97768.75;;;23.02;34.37
42847;BME280;28495;49.916;14.536;2022-07-17T14:51:22;97765.91;;;23.10;34.77
42847;BME280;28495;49.916;14.536;2022-07-17T14:56:43;97756.91;;;23.11;34.40
42847;BME280;28495;49.916;14.536;2022-07-17T15:02:03;97756.91;;;23.11;34.24
42847;BME280;28495;49.916;14.536;2022-07-17T15:07:25;97762.84;;;23.07;34.46
42847;BME280;28495;49.916;14.536;2022-07-17T15:12:46;97764.91;;;23.11;34.45
42847;BME280;28495;49.916;14.536;2022-07-17T15:18:07;97755.88;;;23.06;34.10
42847;BME280;28495;49.916;14.536;2022-07-17T15:23:27;97746.00;;;22.99;33.92
42847;BME280;28495;49.916;14.536;2022-07-17T15:28:48;97752.16;;;23.00;33.70
42847;BME280;28495;49.916;14.536;2022-07-17T15:34:09;97752.38;;;22.98;34.16
42847;BME280;28495;49.916;14.536;2022-07-17T15:39:30;97747.19;;;22.90;33.86
42847;BME280;28495;49.916;14.536;2022-07-17T15:44:50;97747.81;;;22.92;34.36
42847;BME280;28495;49.916;14.536;2022-07-17T15:50:19;97740.03;;;22.91;34.32
42847;BME280;28495;49.916;14.536;2022-07-17T15:55:40;97743.25;;;22.86;34.11
42847;BME280;28495;49.916;14.536;2022-07-17T16:01:00;97736.91;;;22.80;34.53
42847;BME280;28495;49.916;14.536;2022-07-17T16:06:22;97733.13;;;22.68;33.80
42847;BME280;28495;49.916;14.536;2022-07-17T16:11:43;97723.72;;;22.65;34.21
42847;BME280;28495;49.916;14.536;2022-07-17T16:17:03;97726.97;;;22.61;34.17
42847;BME280;28495;49.916;14.536;2022-07-17T16:22:25;97715.75;;;22.65;34.25
42847;BME280;28495;49.916;14.536;2022-07-17T16:27:45;97720.84;;;22.67;34.52
42847;BME280;28495;49.916;14.536;2022-07-17T16:33:07;97714.72;;;22.66;34.34
42847;BME280;28495;49.916;14.536;2022-07-17T16:38:30;97712.25;;;22.65;34.86
42847;BME280;28495;49.916;14.536;2022-07-17T16:43:52;97710.56;;;22.57;34.05
42847;BME280;28495;49.916;14.536;2022-07-17T16:49:13;97697.72;;;22.61;34.70
42847;BME280;28495;49.916;14.536;2022-07-17T16:54:34;97694.56;;;22.50;34.72
42847;BME280;28495;49.916;14.536;2022-07-17T16:59:55;97690.31;;;22.56;35.77
42847;BME280;28495;49.916;14.536;2022-07-17T17:05:15;97697.59;;;22.47;35.41
42847;BME280;28495;49.916;14.536;2022-07-17T17:10:36;97702.84;;;22.41;35.95
42847;BME280;28495;49.916;14.536;2022-07-17T17:15:58;97699.72;;;22.30;36.10
42847;BME280;28495;49.916;14.536;2022-07-17T17:21:19;97697.31;;;22.14;36.42
42847;BME280;28495;49.916;14.536;2022-07-17T17:26:42;97696.69;;;22.12;37.59
42847;BME280;28495;49.916;14.536;2022-07-17T17:32:04;97694.19;;;22.03;37.32
42847;BME280;28495;49.916;14.536;2022-07-17T17:37:25;97688.25;;;22.01;38.02
42847;BME280;28495;49.916;14.536;2022-07-17T17:42:46;97689.63;;;21.97;37.52
42847;BME280;28495;49.916;14.536;2022-07-17T17:48:08;97685.09;;;21.91;37.99
42847;BME280;28495;49.916;14.536;2022-07-17T17:53:30;97687.13;;;21.89;38.60
42847;BME280;28495;49.916;14.536;2022-07-17T17:58:58;97691.91;;;21.78;39.04
42847;BME280;28495;49.916;14.536;2022-07-17T18:04:18;97701.72;;;21.78;39.00
42847;BME280;28495;49.916;14.536;2022-07-17T18:09:39;97702.38;;;21.65;39.38
42847;BME280;28495;49.916;14.536;2022-07-17T18:15:00;97696.75;;;21.38;39.43
42847;BME280;28495;49.916;14.536;2022-07-17T18:20:21;97698.91;;;21.28;39.78
42847;BME280;28495;49.916;14.536;2022-07-17T18:25:42;97705.00;;;21.28;40.12
42847;BME280;28495;49.916;14.536;2022-07-17T18:31:02;97707.59;;;21.22;40.20
42847;BME280;28495;49.916;14.536;2022-07-17T18:36:23;97706.50;;;21.16;40.24
42847;BME280;28495;49.916;14.536;2022-07-17T18:41:44;97712.34;;;20.96;40.62
42847;BME280;28495;49.916;14.536;2022-07-17T18:47:05;97708.63;;;20.76;40.32
42847;BME280;28495;49.916;14.536;2022-07-17T18:52:26;97709.31;;;20.69;40.55
42847;BME280;28495;49.916;14.536;2022-07-17T18:57:49;97721.47;;;20.64;40.78
42847;BME280;28495;49.916;14.536;2022-07-17T19:03:10;97720.72;;;20.55;41.30
42847;BME280;28495;49.916;14.536;2022-07-17T19:08:31;97731.88;;;20.50;41.03
42847;BME280;28495;49.916;14.536;2022-07-17T19:13:52;97740.25;;;20.39;41.22
42847;BME280;28495;49.916;14.536;2022-07-17T19:19:13;97749.97;;;20.23;40.89
42847;BME280;28495;49.916;14.536;2022-07-17T19:24:35;97750.09;;;20.07;41.21
42847;BME280;28495;49.916;14.536;2022-07-17T19:29:55;97761.38;;;20.01;41.17
42847;BME280;28495;49.916;14.536;2022-07-17T19:35:16;97762.25;;;19.93;41.22
42847;BME280;28495;49.916;14.536;2022-07-17T19:40:37;97775.22;;;19.88;41.29
42847;BME280;28495;49.916;14.536;2022-07-17T19:46:00;97768.94;;;19.80;41.58
42847;BME280;28495;49.916;14.536;2022-07-17T19:51:21;97772.44;;;19.73;41.56
42847;BME280;28495;49.916;14.536;2022-07-17T19:56:46;97767.22;;;19.64;41.47
42847;BME280;28495;49.916;14.536;2022-07-17T20:02:07;97764.44;;;19.58;41.59
42847;BME280;28495;49.916;14.536;2022-07-17T20:07:29;97762.16;;;19.46;41.55
42847;BME280;28495;49.916;14.536;2022-07-17T20:12:49;97764.53;;;19.33;41.62
42847;BME280;28495;49.916;14.536;2022-07-17T20:18:12;97764.25;;;19.19;42.03
42847;BME280;28495;49.916;14.536;2022-07-17T20:23:33;97773.69;;;19.14;42.03
42847;BME280;28495;49.916;14.536;2022-07-17T20:28:54;97779.03;;;19.06;42.05
42847;BME280;28495;49.916;14.536;2022-07-17T20:34:16;97786.28;;;19.03;42.16
42847;BME280;28495;49.916;14.536;2022-07-17T20:39:36;97788.75;;;19.05;41.85
42847;BME280;28495;49.916;14.536;2022-07-17T20:44:57;97787.44;;;19.01;42.13
42847;BME280;28495;49.916;14.536;2022-07-17T20:50:18;97796.03;;;19.03;42.25
42847;BME280;28495;49.916;14.536;2022-07-17T20:55:39;97797.53;;;18.89;42.23
42847;BME280;28495;49.916;14.536;2022-07-17T21:01:01;97789.59;;;18.81;42.59
42847;BME280;28495;49.916;14.536;2022-07-17T21:06:22;97789.78;;;18.79;42.41
42847;BME280;28495;49.916;14.536;2022-07-17T21:11:43;97788.47;;;18.67;42.61
42847;BME280;28495;49.916;14.536;2022-07-17T21:17:04;97795.41;;;18.51;42.73
42847;BME280;28495;49.916;14.536;2022-07-17T21:22:26;97800.69;;;18.43;42.49
42847;BME280;28495;49.916;14.536;2022-07-17T21:27:47;97803.81;;;18.22;42.76
42847;BME280;28495;49.916;14.536;2022-07-17T21:33:07;97803.97;;;18.12;43.02
42847;BME280;28495;49.916;14.536;2022-07-17T21:38:28;97803.13;;;18.03;43.22
42847;BME280;28495;49.916;14.536;2022-07-17T21:43:49;97807.03;;;17.91;43.16
42847;BME280;28495;49.916;14.536;2022-07-17T21:49:09;97815.25;;;17.88;43.40
42847;BME280;28495;49.916;14.536;2022-07-17T21:54:30;97810.78;;;17.72;43.68
42847;BME280;28495;49.916;14.536;2022-07-17T21:59:51;97813.06;;;17.66;43.84
42847;BME280;28495;49.916;14.536;2022-07-17T22:05:15;97823.97;;;17.72;43.79
42847;BME280;28495;49.916;14.536;2022-07-17T22:10:36;97826.97;;;17.77;43.66
42847;BME280;28495;49.916;14.536;2022-07-17T22:15:57;97827.94;;;17.76;43.67
42847;BME280;28495;49.916;14.536;2022-07-17T22:21:18;97831.84;;;17.63;43.80
42847;BME280;28495;49.916;14.536;2022-07-17T22:26:40;97830.03;;;17.64;43.80
42847;BME280;28495;49.916;14.536;2022-07-17T22:32:02;97822.63;;;17.67;44.05
42847;BME280;28495;49.916;14.536;2022-07-17T22:37:24;97826.91;;;17.60;43.87
42847;BME280;28495;49.916;14.536;2022-07-17T22:42:44;97813.72;;;17.60;44.17
42847;BME280;28495;49.916;14.536;2022-07-17T22:48:05;97825.91;;;17.61;44.14
42847;BME280;28495;49.916;14.536;2022-07-17T22:53:26;97820.09;;;17.58;44.07
42847;BME280;28495;49.916;14.536;2022-07-17T22:58:47;97818.59;;;17.47;44.15
42847;BME280;28495;49.916;14.536;2022-07-17T23:04:08;97821.19;;;17.39;44.17
42847;BME280;28495;49.916;14.536;2022-07-17T23:09:29;97825.78;;;17.36;44.23
42847;BME280;28495;49.916;14.536;2022-07-17T23:14:52;97823.22;;;17.45;44.23
42847;BME280;28495;49.916;14.536;2022-07-17T23:20:14;97817.88;;;17.36;44.20
42847;BME280;28495;49.916;14.536;2022-07-17T23:25:35;97819.34;;;17.31;44.15
42847;BME280;28495;49.916;14.536;2022-07-17T23:30:55;97813.69;;;17.26;44.23
42847;BME280;28495;49.916;14.536;2022-07-17T23:36:17;97818.47;;;17.22;44.42
42847;BME280;28495;49.916;14.536;2022-07-17T23:41:38;97812.47;;;17.38;44.38
42847;BME280;28495;49.916;14.536;2022-07-17T23:46:58;97817.56;;;17.40;44.14
42847;BME280;28495;49.916;14.536;2022-07-17T23:52:20;97808.63;;;17.32;43.87
42847;BME280;28495;49.916;14.536;2022-07-17T23:57:40;97807.94;;;17.22;44.20
